Time;durP1;ratioP1;P1;durP2;ratioP2;P2;SDS_P1;SDS_P2;PMS_P1;PMS_P2;Temp;Humidity;BMP_temperature;BMP_pressure;BME280_temperature;BME280_humidity;BME280_pressure;Samples;Min_cycle;Max_cycle;Signal;HPM_P1;HPM_P2
2023/10/21 00:01:19;;;;;;;6.82;0.90;;;;;;;15.10;100.00;92751.25;4869906;29;20123;-89
2023/10/21 00:03:44;;;;;;;12.88;0.77;;;;;;;15.19;100.00;92745.06;4916681;29;20076;-88
2023/10/21 00:06:10;;;;;;;2.47;0.60;;;;;;;15.37;100.00;92758.75;4885456;29;20036;-89
2023/10/21 00:08:36;;;;;;;9.05;1.05;;;;;;;15.12;100.00;92756.19;4869993;29;20035;-89
2023/10/21 00:11:05;;;;;;;4.22;0.90;;;;;;;15.34;100.00;92746.22;4869606;29;20048;-90
2023/10/21 00:13:32;;;;;;;8.80;0.60;;;;;;;15.67;100.00;92753.09;4869472;29;20036;-88
2023/10/21 00:15:57;;;;;;;2.13;0.28;;;;;;;15.68;100.00;92752.00;4885182;29;20029;-89
2023/10/21 00:18:24;;;;;;;5.65;0.80;;;;;;;15.67;100.00;92761.78;4885204;29;20032;-89
2023/10/21 00:21:08;;;;;;;4.75;0.73;;;;;;;15.34;100.00;92759.41;4885065;29;20032;-89
2023/10/21 00:23:52;;;;;;;10.60;1.52;;;;;;;14.86;100.00;92753.97;4885211;29;20038;-88
2023/10/21 00:26:18;;;;;;;6.15;0.90;;;;;;;14.78;100.00;92742.44;4901834;29;20457;-89
2023/10/21 00:28:43;;;;;;;5.32;0.95;;;;;;;14.75;100.00;92758.94;4869815;29;20032;-89
2023/10/21 00:31:09;;;;;;;4.75;0.80;;;;;;;14.61;100.00;92751.34;4884967;29;20032;-89
2023/10/21 00:39:03;;;;;;;6.40;1.02;;;;;;;14.12;100.00;92769.47;4887617;29;20071;-88
2023/10/21 00:41:28;;;;;;;10.05;0.80;;;;;;;14.22;100.00;92770.13;4884858;29;20064;-89
2023/10/21 00:43:53;;;;;;;5.78;0.70;;;;;;;14.24;100.00;92773.22;4884902;29;20029;-89
2023/10/21 00:46:19;;;;;;;8.35;1.05;;;;;;;14.28;100.00;92756.41;4869684;29;20032;-89
2023/10/21 00:48:45;;;;;;;6.75;1.23;;;;;;;13.98;100.00;92776.91;4901688;29;20061;-89
2023/10/21 00:53:56;;;;;;;10.93;0.85;;;;;;;14.42;100.00;92789.56;4887485;29;20051;-88
2023/10/21 00:56:22;;;;;;;12.15;1.40;;;;;;;14.56;100.00;92789.22;4884859;29;20032;-89
2023/10/21 00:58:47;;;;;;;7.88;1.00;;;;;;;14.60;100.00;92791.97;4869456;29;20025;-89
2023/10/21 01:01:13;;;;;;;20.52;1.17;;;;;;;14.72;100.00;92794.63;4869434;29;20029;-89
2023/10/21 01:03:40;;;;;;;8.98;0.85;;;;;;;14.94;100.00;92795.25;4884871;29;20029;-89
2023/10/21 01:06:06;;;;;;;8.98;1.40;;;;;;;14.86;100.00;92798.78;4884795;29;20025;-89
2023/10/21 01:08:50;;;;;;;7.68;0.70;;;;;;;14.81;100.00;92795.28;4884749;29;20028;-88
2023/10/21 01:11:15;;;;;;;2.92;0.90;;;;;;;14.90;100.00;92794.38;4884930;29;20024;-89
2023/10/21 01:13:43;;;;;;;3.97;0.80;;;;;;;15.04;100.00;92794.78;4884885;29;20341;-89
2023/10/21 01:16:08;;;;;;;4.00;0.93;;;;;;;15.09;100.00;92794.56;4901428;29;20025;-89
2023/10/21 01:18:34;;;;;;;6.05;1.15;;;;;;;15.00;100.00;92799.19;4884591;29;20422;-89
2023/10/21 01:21:01;;;;;;;6.38;1.10;;;;;;;15.01;100.00;92797.34;4869321;29;20027;-89
2023/10/21 01:23:27;;;;;;;4.25;0.77;;;;;;;15.03;100.00;92787.22;4884789;29;20032;-89
2023/10/21 01:28:37;;;;;;;7.70;1.15;;;;;;;15.45;100.00;92801.91;4887206;29;20345;-89
2023/10/21 01:31:02;;;;;;;7.03;0.88;;;;;;;15.48;100.00;92790.69;4884322;29;20024;-89
2023/10/21 01:33:28;;;;;;;4.45;0.82;;;;;;;15.48;100.00;92806.53;4884857;29;20104;-89
2023/10/21 01:39:15;;;;;;;9.73;1.08;;;;;;;15.35;100.00;92827.69;4906245;29;20132;-89
2023/10/21 01:41:40;;;;;;;6.80;1.67;;;;;;;15.54;100.00;92840.25;4894880;29;20460;-89
2023/10/21 01:46:49;;;;;;;5.43;1.00;;;;;;;15.43;100.00;92835.81;4883752;29;20035;-89
2023/10/21 01:49:15;;;;;;;4.63;1.27;;;;;;;14.61;100.00;92840.94;4890411;29;20505;-89
2023/10/21 01:51:40;;;;;;;8.48;1.40;;;;;;;14.76;100.00;92858.75;4887475;29;20076;-89
2023/10/21 01:54:06;;;;;;;14.77;1.55;;;;;;;14.76;100.00;92858.00;4887639;29;20389;-88
2023/10/21 01:56:31;;;;;;;6.47;1.10;;;;;;;14.46;100.00;92848.41;4887535;29;20028;-88
2023/10/21 01:59:15;;;;;;;6.72;1.20;;;;;;;13.87;100.00;92836.38;4887797;29;20330;-88
2023/10/21 02:01:41;;;;;;;5.70;1.33;;;;;;;14.21;100.00;92834.44;4904190;29;20035;-89
2023/10/21 02:04:07;;;;;;;13.98;1.30;;;;;;;13.64;100.00;92855.16;4903411;29;20028;-89
2023/10/21 02:06:32;;;;;;;10.68;1.00;;;;;;;13.62;100.00;92847.56;4887426;29;20561;-89
2023/10/21 02:08:57;;;;;;;8.45;1.10;;;;;;;13.47;100.00;92842.91;4871942;29;20032;-89
2023/10/21 02:14:26;;;;;;;8.85;1.10;;;;;;;13.52;100.00;92847.97;4889854;29;20067;-89
2023/10/21 02:16:52;;;;;;;13.27;1.27;;;;;;;13.36;100.00;92850.38;4887531;29;20028;-88
2023/10/21 02:19:18;;;;;;;6.40;1.23;;;;;;;13.29;100.00;92856.94;4902696;29;20060;-89
2023/10/21 02:22:02;;;;;;;10.15;1.42;;;;;;;13.62;100.00;92847.56;4870034;29;20060;-89
2023/10/21 02:24:27;;;;;;;10.75;1.50;;;;;;;14.02;100.00;92834.97;4903592;29;20433;-90
2023/10/21 02:29:56;;;;;;;7.63;0.60;;;;;;;14.89;100.00;92833.19;4878704;29;20082;-90
2023/10/21 02:32:21;;;;;;;8.27;1.05;;;;;;;14.70;100.00;92831.84;4889791;29;20024;-89
2023/10/21 02:34:46;;;;;;;8.20;1.63;;;;;;;13.84;100.00;92835.16;4877846;29;20033;-89
2023/10/21 02:37:31;;;;;;;6.78;1.10;;;;;;;14.03;100.00;92844.41;4895681;29;20123;-89
2023/10/21 02:39:56;;;;;;;2.20;0.68;;;;;;;14.10;100.00;92842.75;4880146;29;20470;-90
2023/10/21 02:42:21;;;;;;;5.72;0.70;;;;;;;14.27;100.00;92833.13;4890940;29;20063;-88
2023/10/21 02:47:36;;;;;;;11.07;1.10;;;;;;;14.39;100.00;92835.03;4870598;29;20036;-89
2023/10/21 02:50:03;;;;;;;6.90;0.75;;;;;;;13.91;100.00;92848.53;4868351;29;20040;-89
2023/10/21 02:52:29;;;;;;;7.95;1.23;;;;;;;14.07;100.00;92846.06;4880546;29;20100;-89
2023/10/21 02:54:54;;;;;;;9.95;1.20;;;;;;;14.20;100.00;92853.97;4862323;29;20029;-89
2023/10/21 02:57:20;;;;;;;10.55;1.25;;;;;;;13.97;100.00;92852.50;4867406;29;20059;-89
2023/10/21 02:59:46;;;;;;;9.75;0.90;;;;;;;14.01;100.00;92860.53;4867929;29;20028;-89
2023/10/21 03:02:13;;;;;;;5.90;0.80;;;;;;;13.82;100.00;92868.94;4898494;29;20445;-88
2023/10/21 03:04:42;;;;;;;8.48;1.20;;;;;;;13.33;100.00;92872.09;4838009;29;20401;-88
2023/10/21 03:07:08;;;;;;;5.10;1.10;;;;;;;13.50;100.00;92879.88;4867762;29;20395;-89
2023/10/21 03:09:33;;;;;;;7.25;1.20;;;;;;;13.00;100.00;92890.09;4884051;29;20060;-89
2023/10/21 03:11:58;;;;;;;10.07;1.10;;;;;;;13.22;100.00;92892.75;4890742;29;20120;-89
2023/10/21 03:14:24;;;;;;;7.70;1.30;;;;;;;13.65;100.00;92894.31;4875035;29;20111;-89
2023/10/21 03:16:49;;;;;;;7.07;1.13;;;;;;;14.03;100.00;92897.84;4880427;29;20043;-89
2023/10/21 03:19:15;;;;;;;8.77;1.15;;;;;;;14.27;100.00;92901.63;4857596;29;20036;-90
2023/10/21 03:21:40;;;;;;;11.52;1.02;;;;;;;14.50;100.00;92896.75;4848617;29;20033;-89
2023/10/21 03:24:06;;;;;;;12.35;1.40;;;;;;;14.60;100.00;92895.53;4864106;29;20033;-89
2023/10/21 03:26:31;;;;;;;5.32;1.38;;;;;;;14.63;100.00;92902.78;4848457;29;20054;-89
2023/10/21 03:28:57;;;;;;;6.05;0.90;;;;;;;14.70;100.00;92904.88;4879612;29;20034;-89
2023/10/21 03:31:22;;;;;;;2.78;0.70;;;;;;;14.65;100.00;92913.00;4863703;29;20153;-89
2023/10/21 03:33:48;;;;;;;8.77;1.10;;;;;;;14.62;100.00;92916.28;4879538;29;20033;-89
2023/10/21 03:36:32;;;;;;;3.42;0.77;;;;;;;14.51;100.00;92923.84;4879449;29;20447;-89
2023/10/21 03:38:57;;;;;;;7.78;0.80;;;;;;;14.44;100.00;92919.13;4879342;29;20120;-89
2023/10/21 03:41:23;;;;;;;1.58;0.55;;;;;;;14.37;100.00;92909.13;4879171;29;20108;-89
2023/10/21 03:43:50;;;;;;;5.03;0.88;;;;;;;14.36;100.00;92920.00;4863916;29;20045;-89
2023/10/21 03:46:17;;;;;;;6.00;0.60;;;;;;;14.50;100.00;92912.56;4848684;29;20068;-89
2023/10/21 03:48:42;;;;;;;1.33;0.45;;;;;;;14.55;100.00;92912.34;4878916;29;20037;-89
2023/10/21 03:51:11;;;;;;;3.45;0.80;;;;;;;14.56;100.00;92921.78;4879112;29;20037;-90
2023/10/21 03:56:58;;;;;;;6.28;0.80;;;;;;;14.53;100.00;92922.44;4850165;29;20033;-88
2023/10/21 03:59:24;;;;;;;3.80;0.80;;;;;;;14.44;100.00;92927.03;4878990;29;20043;-89
2023/10/21 04:01:49;;;;;;;7.30;0.80;;;;;;;14.00;100.00;92941.38;4863813;29;20120;-88
2023/10/21 04:04:14;;;;;;;10.45;0.95;;;;;;;13.88;100.00;92943.97;4863741;29;20159;-89
2023/10/21 04:06:59;;;;;;;2.85;0.68;;;;;;;14.03;100.00;92953.16;4849129;29;20033;-89
2023/10/21 04:09:25;;;;;;;3.95;0.60;;;;;;;13.99;100.00;92954.88;4915028;29;20051;-88
2023/10/21 04:11:51;;;;;;;4.32;0.70;;;;;;;13.87;100.00;92957.47;4885335;29;20103;-90
2023/10/21 04:14:17;;;;;;;5.47;0.60;;;;;;;13.85;100.00;92957.78;4884925;29;20037;-89
2023/10/21 04:16:44;;;;;;;6.13;0.77;;;;;;;13.85;100.00;92966.47;4885154;29;20405;-89
2023/10/21 04:19:10;;;;;;;8.45;1.58;;;;;;;13.47;100.00;92950.75;4884956;29;20032;-89
2023/10/21 04:24:57;;;;;;;4.22;1.02;;;;;;;13.49;100.00;92959.88;4892663;29;20056;-91
2023/10/21 04:27:23;;;;;;;3.35;0.75;;;;;;;13.51;100.00;92954.31;4902079;29;20064;-89
2023/10/21 04:29:48;;;;;;;3.30;0.60;;;;;;;13.53;100.00;92952.13;4897430;29;20041;-89
2023/10/21 04:32:33;;;;;;;3.50;0.60;;;;;;;13.46;100.00;92955.28;4866526;29;20044;-90
2023/10/21 04:34:59;;;;;;;2.03;0.60;;;;;;;13.62;100.00;92941.53;4882848;29;20043;-90
2023/10/21 04:37:44;;;;;;;7.13;0.90;;;;;;;13.55;100.00;92931.53;4897178;29;20037;-90
2023/10/21 04:40:31;;;;;;;7.28;0.80;;;;;;;13.81;100.00;92928.69;4881370;29;20080;-90
2023/10/21 04:43:15;;;;;;;6.90;0.60;;;;;;;13.97;100.00;92928.88;4882646;29;20072;-89
2023/10/21 04:45:40;;;;;;;1.20;0.50;;;;;;;14.01;100.00;92942.16;4881589;29;20033;-89
2023/10/21 04:48:07;;;;;;;4.95;0.70;;;;;;;13.95;100.00;92940.81;4882087;29;20029;-90
2023/10/21 04:53:18;;;;;;;1.80;0.50;;;;;;;13.50;100.00;92956.16;4882731;29;20040;-90
2023/10/21 04:58:46;;;;;;;5.95;0.80;;;;;;;13.13;100.00;92951.41;4895116;29;20349;-90
2023/10/21 05:01:16;;;;;;;4.97;0.63;;;;;;;13.34;100.00;92965.69;4881348;29;20131;-89
2023/10/21 05:06:45;;;;;;;3.33;0.63;;;;;;;13.14;100.00;92944.28;4882299;29;20136;-89
2023/10/21 05:09:29;;;;;;;3.30;0.63;;;;;;;13.23;100.00;92954.75;4898557;29;20085;-89
2023/10/21 05:11:55;;;;;;;5.72;1.15;;;;;;;13.29;100.00;92949.00;4881808;29;20030;-89
2023/10/21 05:14:20;;;;;;;5.60;0.60;;;;;;;13.38;100.00;92959.47;4867897;29;20025;-89
2023/10/21 05:16:46;;;;;;;3.80;0.73;;;;;;;13.64;100.00;92976.97;4854382;29;20036;-90
2023/10/21 05:19:11;;;;;;;3.78;0.70;;;;;;;13.74;100.00;92973.19;4869113;29;20115;-90
2023/10/21 05:21:37;;;;;;;3.58;0.60;;;;;;;13.76;100.00;92975.50;4869066;29;20024;-89
2023/10/21 05:29:31;;;;;;;2.47;0.40;;;;;;;13.52;100.00;92990.06;4879815;29;20048;-89
2023/10/21 05:31:57;;;;;;;8.25;0.73;;;;;;;13.67;100.00;92986.88;4865982;29;20033;-89
2023/10/21 05:34:41;;;;;;;3.65;0.50;;;;;;;13.68;100.00;92983.13;4881784;29;20384;-90
2023/10/21 05:42:36;;;;;;;4.47;0.65;;;;;;;13.19;100.00;93001.19;4879755;29;20085;-89
2023/10/21 05:50:31;;;;;;;2.53;0.40;;;;;;;13.20;100.00;93006.13;4868351;29;20045;-89
2023/10/21 05:52:57;;;;;;;2.05;0.52;;;;;;;12.82;100.00;93020.03;4874560;29;20037;-88
2023/10/21 05:55:22;;;;;;;2.67;0.75;;;;;;;13.00;100.00;93024.16;4851012;29;20061;-90
2023/10/21 05:57:48;;;;;;;2.15;0.60;;;;;;;12.89;100.00;93032.69;4870726;29;20387;-90
2023/10/21 06:00:14;;;;;;;3.17;0.55;;;;;;;13.02;100.00;93044.88;4888035;29;20040;-90
2023/10/21 06:02:40;;;;;;;1.65;0.40;;;;;;;13.08;100.00;93041.00;4887468;29;20357;-89
2023/10/21 06:05:05;;;;;;;2.88;0.30;;;;;;;13.22;100.00;93038.13;4878123;29;20037;-89
2023/10/21 06:10:34;;;;;;;4.45;0.70;;;;;;;13.10;100.00;93038.81;4866430;29;20031;-90
2023/10/21 06:13:00;;;;;;;4.63;0.57;;;;;;;13.15;100.00;93038.63;4884751;29;20104;-90
2023/10/21 06:15:44;;;;;;;7.75;0.60;;;;;;;13.02;100.00;93047.50;4900273;29;20434;-89
2023/10/21 06:18:10;;;;;;;2.17;0.52;;;;;;;12.96;100.00;93057.41;4899599;29;20123;-89
2023/10/21 06:20:36;;;;;;;3.95;0.60;;;;;;;12.93;100.00;93055.41;4899304;29;20515;-90
2023/10/21 06:23:20;;;;;;;8.77;0.70;;;;;;;13.14;100.00;93063.38;4883618;29;20039;-89
2023/10/21 06:31:32;;;;;;;4.55;0.40;;;;;;;13.03;100.00;93100.84;4866396;29;20470;-90
2023/10/21 06:33:57;;;;;;;3.85;0.70;;;;;;;13.06;100.00;93106.28;4866271;29;20089;-90
2023/10/21 06:36:23;;;;;;;8.57;0.70;;;;;;;13.23;100.00;93110.69;4868081;29;20029;-89
2023/10/21 06:38:51;;;;;;;3.90;0.65;;;;;;;13.12;100.00;93122.63;4883953;29;20041;-89
2023/10/21 06:41:17;;;;;;;4.60;0.75;;;;;;;13.09;100.00;93124.03;4854467;29;20033;-90
2023/10/21 06:43:42;;;;;;;4.22;0.63;;;;;;;12.57;100.00;93138.78;4867940;29;20035;-90
2023/10/21 06:49:29;;;;;;;7.57;0.98;;;;;;;12.86;100.00;93141.88;4884431;29;20120;-88
2023/10/21 06:52:13;;;;;;;6.40;0.77;;;;;;;12.81;100.00;93150.69;4898967;29;20095;-89
2023/10/21 06:54:39;;;;;;;4.22;0.68;;;;;;;13.24;100.00;93150.94;4898831;29;20081;-90
2023/10/21 06:57:05;;;;;;;1.52;0.57;;;;;;;13.44;100.00;93149.50;4884303;29;20076;-90
2023/10/21 06:59:52;;;;;;;4.35;0.60;;;;;;;13.79;100.00;93153.88;4883678;29;20040;-90
2023/10/21 07:02:36;;;;;;;2.92;0.50;;;;;;;14.47;100.00;93152.97;4884673;29;20047;-87
2023/10/21 07:05:02;;;;;;;2.53;0.52;;;;;;;14.46;100.00;93154.06;4883212;29;20358;-88
2023/10/21 07:07:27;;;;;;;2.58;0.60;;;;;;;14.74;100.00;93155.47;4898765;29;20028;-88
2023/10/21 07:10:11;;;;;;;4.00;0.50;;;;;;;14.71;100.00;93156.84;4898107;29;20052;-89
2023/10/21 07:12:55;;;;;;;5.60;0.52;;;;;;;14.50;100.00;93151.56;4883960;29;20037;-89
2023/10/21 07:15:21;;;;;;;8.00;0.73;;;;;;;14.19;100.00;93148.22;4898550;29;20039;-89
2023/10/21 07:18:05;;;;;;;5.75;0.80;;;;;;;13.92;100.00;93152.88;4898916;29;20036;-89
2023/10/21 07:23:35;;;;;;;6.53;0.70;;;;;;;14.44;100.00;93166.81;4884826;29;20044;-89
2023/10/21 07:29:07;;;;;;;6.57;0.60;;;;;;;14.31;100.00;93171.25;4897162;29;20398;-89
2023/10/21 07:31:33;;;;;;;4.82;0.80;;;;;;;14.74;100.00;93176.56;4883912;29;20029;-88
2023/10/21 07:33:59;;;;;;;2.58;0.47;;;;;;;15.12;100.00;93178.22;4853567;29;20068;-89
2023/10/21 07:36:25;;;;;;;5.57;0.68;;;;;;;15.40;100.00;93181.09;4900893;29;20082;-90
2023/10/21 07:38:50;;;;;;;5.07;0.52;;;;;;;15.68;100.00;93174.41;4883715;29;20039;-89
2023/10/21 07:41:16;;;;;;;5.32;0.80;;;;;;;15.67;100.00;93181.56;4898968;29;20097;-90
2023/10/21 07:43:42;;;;;;;4.68;0.60;;;;;;;15.83;100.00;93184.31;4900801;29;20040;-89
2023/10/21 07:46:08;;;;;;;6.93;0.60;;;;;;;15.48;100.00;93181.31;4902734;29;20057;-90
2023/10/21 07:48:52;;;;;;;3.75;0.70;;;;;;;15.98;100.00;93192.72;4901720;29;20048;-90
2023/10/21 07:51:18;;;;;;;6.10;0.57;;;;;;;16.33;100.00;93183.56;4886081;29;20131;-90
2023/10/21 07:53:44;;;;;;;3.65;0.82;;;;;;;16.49;100.00;93184.44;4903107;29;20036;-90
2023/10/21 07:56:09;;;;;;;3.15;0.70;;;;;;;16.52;100.00;93194.34;4885300;29;20093;-90
2023/10/21 07:58:35;;;;;;;2.92;0.75;;;;;;;16.44;100.00;93197.88;4885298;29;20037;-90
2023/10/21 08:03:45;;;;;;;2.88;0.80;;;;;;;16.79;100.00;93191.31;4895796;29;20040;-90
2023/10/21 08:06:10;;;;;;;4.55;1.10;;;;;;;16.63;100.00;93183.28;4851303;29;20346;-90
2023/10/21 08:08:36;;;;;;;4.85;1.02;;;;;;;16.74;100.00;93181.72;4897560;29;20037;-91
2023/10/21 08:11:21;;;;;;;4.85;0.60;;;;;;;16.80;100.00;93176.97;4882345;29;20096;-91
2023/10/21 08:14:05;;;;;;;3.13;0.52;;;;;;;17.02;100.00;93193.47;4897700;29;20033;-90
2023/10/21 08:16:30;;;;;;;8.40;1.02;;;;;;;17.25;100.00;93180.50;4897345;29;20416;-90
2023/10/21 08:21:40;;;;;;;6.55;0.88;;;;;;;17.61;100.00;93184.03;4898396;29;20094;-89
2023/10/21 08:24:07;;;;;;;2.67;0.70;;;;;;;17.70;100.00;93180.47;4866986;29;20052;-89
2023/10/21 08:26:33;;;;;;;5.55;1.10;;;;;;;17.74;100.00;93183.94;4869509;29;20053;-90
2023/10/21 08:28:59;;;;;;;3.20;0.90;;;;;;;17.95;100.00;93184.47;4852193;29;20377;-90
2023/10/21 08:31:24;;;;;;;3.85;0.70;;;;;;;17.86;100.00;93181.22;4867063;29;20037;-89
2023/10/21 08:34:14;;;;;;;3.58;0.43;;;;;;;17.86;100.00;93180.44;4878558;29;20069;-90
2023/10/21 08:36:41;;;;;;;4.82;0.88;;;;;;;18.07;100.00;93175.69;4879293;29;20085;-89
2023/10/21 08:44:36;;;;;;;0.93;0.43;;;;;;;18.25;100.00;93180.63;4891989;29;20044;-90
2023/10/21 08:47:04;;;;;;;5.45;0.80;;;;;;;18.10;100.00;93184.84;4903833;29;20032;-90
2023/10/21 08:49:49;;;;;;;5.40;1.10;;;;;;;17.86;100.00;93188.41;4873303;29;20035;-90
2023/10/21 08:52:15;;;;;;;3.60;1.00;;;;;;;17.61;100.00;93194.63;4919524;29;20036;-90
2023/10/21 08:54:45;;;;;;;1.90;0.50;;;;;;;17.33;100.00;93192.78;4870722;29;20040;-90
2023/10/21 08:57:11;;;;;;;5.13;0.90;;;;;;;17.44;100.00;93202.88;4866798;29;20068;-90
2023/10/21 08:59:38;;;;;;;3.75;0.68;;;;;;;17.58;100.00;93202.50;4866697;29;20049;-90
2023/10/21 09:02:04;;;;;;;3.22;0.60;;;;;;;17.60;100.00;93201.03;4850991;29;20044;-90
2023/10/21 09:04:30;;;;;;;6.57;0.82;;;;;;;17.90;100.00;93197.97;4850876;29;20144;-90
2023/10/21 09:06:58;;;;;;;4.15;0.80;;;;;;;17.91;100.00;93199.50;4866632;29;20427;-90
2023/10/21 09:09:42;;;;;;;5.05;0.68;;;;;;;17.92;100.00;93193.09;4866284;29;20041;-90
2023/10/21 09:12:17;;;;;;;2.63;0.75;;;;;;;17.88;100.00;93197.53;4866420;29;20033;-90
2023/10/21 09:14:55;;;;;;;6.57;0.95;;;;;;;17.94;100.00;93188.25;4871998;29;20034;-90
2023/10/21 09:17:21;;;;;;;5.22;0.63;;;;;;;17.73;100.00;93195.66;4866759;29;20034;-89
2023/10/21 09:19:52;;;;;;;5.00;0.77;;;;;;;18.02;100.00;93191.84;4866265;29;20041;-90
2023/10/21 09:22:26;;;;;;;3.92;1.05;;;;;;;18.06;100.00;93191.91;4882802;29;20328;-90
2023/10/21 09:25:15;;;;;;;3.80;0.95;;;;;;;18.26;100.00;93187.44;4856759;29;20044;-91
2023/10/21 09:27:49;;;;;;;5.90;0.50;;;;;;;18.36;100.00;93186.94;4877318;29;20037;-90
2023/10/21 09:36:04;;;;;;;5.40;0.63;;;;;;;18.79;100.00;93199.56;4852956;29;20093;-91
2023/10/21 09:41:33;;;;;;;2.28;0.70;;;;;;;18.47;100.00;93197.78;4886569;29;20036;-90
2023/10/21 09:44:03;;;;;;;3.70;0.63;;;;;;;18.58;100.00;93210.50;4899997;29;20047;-91
2023/10/21 09:46:30;;;;;;;1.75;0.60;;;;;;;18.67;100.00;93203.13;4901024;29;20115;-90
2023/10/21 09:49:00;;;;;;;4.43;0.40;;;;;;;18.79;100.00;93205.66;4884946;29;20033;-90
2023/10/21 09:51:30;;;;;;;3.67;0.60;;;;;;;19.06;100.00;93207.72;4900168;29;20037;-90
2023/10/21 09:53:58;;;;;;;4.43;0.55;;;;;;;19.12;100.00;93214.28;4884237;29;20029;-90
2023/10/21 09:56:26;;;;;;;4.13;0.70;;;;;;;19.20;100.00;93212.53;4869059;29;20032;-90
2023/10/21 09:58:53;;;;;;;4.07;0.60;;;;;;;19.32;100.00;93215.03;4906202;29;20100;-90
2023/10/21 10:01:23;;;;;;;12.02;0.80;;;;;;;19.50;100.00;93209.28;4873207;29;20455;-90
2023/10/21 10:04:09;;;;;;;3.50;0.60;;;;;;;19.42;100.00;93208.38;4887710;29;20028;-91
2023/10/21 10:06:40;;;;;;;6.75;0.77;;;;;;;19.42;100.00;93204.97;4887677;29;20033;-90
2023/10/21 10:09:06;;;;;;;3.08;0.60;;;;;;;19.41;100.00;93201.53;4881199;29;20347;-90
2023/10/21 10:11:51;;;;;;;3.67;0.47;;;;;;;19.47;100.00;93202.03;4865331;29;20435;-90
2023/10/21 10:14:16;;;;;;;3.08;0.52;;;;;;;19.26;100.00;93208.47;4881179;29;20040;-90
2023/10/21 10:16:44;;;;;;;2.35;0.60;;;;;;;19.41;100.00;93203.44;4880770;29;20092;-91
2023/10/21 10:19:12;;;;;;;3.60;0.75;;;;;;;19.64;100.00;93214.09;4865348;29;20121;-90
2023/10/21 10:21:41;;;;;;;4.45;0.90;;;;;;;19.74;97.39;93205.53;4868679;29;20037;-90
2023/10/21 10:24:07;;;;;;;3.88;0.60;;;;;;;19.95;100.00;93209.69;4880598;29;20116;-90
2023/10/21 10:26:51;;;;;;;6.85;0.90;;;;;;;20.12;100.00;93208.47;4884466;29;20128;-91
2023/10/21 10:29:25;;;;;;;4.07;0.80;;;;;;;20.19;94.82;93213.88;4869622;29;20033;-90
2023/10/21 10:32:14;;;;;;;5.70;0.50;;;;;;;20.26;90.06;93221.19;4865577;29;20072;-91
2023/10/21 10:34:55;;;;;;;2.20;0.40;;;;;;;20.54;100.00;93225.41;4865583;29;20485;-90
2023/10/21 10:37:52;;;;;;;2.30;0.40;;;;;;;19.90;91.97;93223.25;4865040;29;20072;-90
2023/10/21 10:40:19;;;;;;;1.35;0.30;;;;;;;19.60;99.74;93221.25;4865179;29;20429;-91
2023/10/21 10:42:45;;;;;;;4.03;0.40;;;;;;;19.57;98.13;93214.72;4852471;29;20133;-90
2023/10/21 10:45:10;;;;;;;3.08;0.50;;;;;;;19.95;97.68;93208.94;4851048;29;20498;-90
2023/10/21 10:47:56;;;;;;;4.68;0.80;;;;;;;20.11;100.00;93206.13;4861450;29;20431;-89
2023/10/21 10:50:23;;;;;;;2.63;0.80;;;;;;;20.25;85.09;93200.28;4868513;29;20043;-90
2023/10/21 10:53:07;;;;;;;3.30;0.50;;;;;;;20.57;86.81;93203.38;4883276;29;20029;-90
2023/10/21 10:55:32;;;;;;;6.90;0.75;;;;;;;20.41;85.00;93198.25;4900291;29;20033;-90
2023/10/21 10:58:35;;;;;;;1.58;0.40;;;;;;;20.27;93.94;93200.69;4868741;29;20431;-90
2023/10/21 11:01:01;;;;;;;4.72;0.60;;;;;;;19.61;100.00;93212.16;4898848;29;20033;-90
2023/10/21 11:03:28;;;;;;;4.00;0.63;;;;;;;19.80;100.00;93208.69;4868752;29;20329;-90
2023/10/21 11:05:57;;;;;;;1.65;0.50;;;;;;;19.81;100.00;93204.91;4869126;29;20036;-90
2023/10/21 11:08:24;;;;;;;3.85;0.52;;;;;;;19.11;100.00;93201.38;4899062;29;20052;-89
2023/10/21 11:11:10;;;;;;;1.40;0.60;;;;;;;19.19;100.00;93198.50;4899485;29;20080;-89
2023/10/21 11:13:36;;;;;;;3.95;1.10;;;;;;;19.04;99.05;93194.03;4884320;29;20354;-90
2023/10/21 11:16:04;;;;;;;4.13;0.57;;;;;;;18.92;100.00;93189.59;4898549;29;20036;-89
2023/10/21 11:18:49;;;;;;;3.80;0.60;;;;;;;19.18;100.00;93190.88;4867818;29;20048;-89
2023/10/21 11:21:14;;;;;;;3.65;0.60;;;;;;;19.23;99.13;93187.94;4900824;29;20033;-89
2023/10/21 11:23:40;;;;;;;3.10;0.60;;;;;;;19.56;91.04;93191.94;4884197;29;20025;-89
2023/10/21 11:26:07;;;;;;;3.63;0.80;;;;;;;19.05;100.00;93187.59;4880849;29;20048;-89
2023/10/21 11:31:37;;;;;;;4.63;0.82;;;;;;;19.20;100.00;93178.78;4883913;29;20040;-89
2023/10/21 11:34:14;;;;;;;3.03;0.70;;;;;;;19.11;100.00;93180.13;4868082;29;20037;-90
2023/10/21 11:36:58;;;;;;;3.92;0.80;;;;;;;19.12;100.00;93189.63;4884443;29;20059;-90
2023/10/21 11:39:23;;;;;;;3.58;0.68;;;;;;;18.50;100.00;93199.72;4867526;29;20037;-89
2023/10/21 11:41:50;;;;;;;2.30;0.68;;;;;;;18.90;100.00;93207.75;4883357;29;20048;-89
2023/10/21 11:44:20;;;;;;;2.78;0.65;;;;;;;18.91;100.00;93207.41;4897857;29;20323;-89
2023/10/21 11:46:46;;;;;;;1.55;0.45;;;;;;;18.25;100.00;93219.63;4883318;29;20319;-90
2023/10/21 11:49:15;;;;;;;5.47;0.80;;;;;;;18.17;100.00;93214.16;4882807;29;20060;-89
2023/10/21 11:51:42;;;;;;;3.58;0.70;;;;;;;18.17;100.00;93219.44;4882079;29;20029;-90
2023/10/21 11:54:46;;;;;;;8.60;2.05;;;;;;;17.98;100.00;93219.34;4898258;29;20311;-89
2023/10/21 12:11:42;;;;;;;11.93;0.63;;;;;;;15.59;100.00;93222.03;4893233;29;20549;-89
2023/10/21 12:30:38;;;;;;;3.53;0.60;;;;;;;14.19;100.00;93268.63;4892948;29;20041;-89
2023/10/21 12:43:37;;;;;;;2.13;0.70;;;;;;;13.68;100.00;93283.19;4860555;29;20092;-89
2023/10/21 12:46:16;;;;;;;3.35;0.70;;;;;;;13.97;100.00;93291.44;4873876;29;20086;-89
2023/10/21 12:48:42;;;;;;;4.72;0.80;;;;;;;13.71;100.00;93290.44;4862916;29;20029;-89
2023/10/21 12:51:09;;;;;;;5.93;1.10;;;;;;;13.48;100.00;93299.59;4895366;29;20030;-89
2023/10/21 12:53:35;;;;;;;1.75;0.95;;;;;;;13.61;100.00;93303.16;4855307;29;20024;-89
2023/10/21 12:56:00;;;;;;;3.72;0.98;;;;;;;13.69;100.00;93307.63;4871882;29;20094;-90
2023/10/21 12:58:26;;;;;;;12.88;1.33;;;;;;;13.45;100.00;93310.75;4892224;29;20501;-89
2023/10/21 13:00:51;;;;;;;8.93;1.40;;;;;;;13.28;100.00;93309.66;4890696;29;20037;-89
2023/10/21 13:03:19;;;;;;;4.10;1.15;;;;;;;13.40;100.00;93309.03;4897707;29;20052;-89
2023/10/21 13:05:46;;;;;;;5.18;1.00;;;;;;;13.31;100.00;93314.28;4874791;29;20112;-89
2023/10/21 13:08:30;;;;;;;5.80;0.80;;;;;;;13.32;100.00;93326.34;4876902;29;20028;-89
2023/10/21 13:10:56;;;;;;;4.65;0.80;;;;;;;13.17;100.00;93314.47;4888169;29;20322;-90
2023/10/21 13:13:21;;;;;;;3.90;1.02;;;;;;;12.99;100.00;93317.06;4873324;29;20024;-90
2023/10/21 13:15:47;;;;;;;4.90;0.60;;;;;;;12.82;100.00;93311.78;4875638;29;20025;-90
2023/10/21 13:18:13;;;;;;;3.42;0.77;;;;;;;12.90;100.00;93307.59;4869291;29;20063;-90
2023/10/21 13:23:25;;;;;;;3.42;0.38;;;;;;;12.99;100.00;93306.56;4876703;29;20032;-91
2023/10/21 13:28:54;;;;;;;5.53;0.77;;;;;;;12.95;100.00;93287.19;4891282;29;20349;-90
2023/10/21 13:31:20;;;;;;;3.13;0.55;;;;;;;12.77;100.00;93277.75;4869404;29;20273;-89
2023/10/21 13:33:45;;;;;;;5.05;0.98;;;;;;;12.73;100.00;93273.13;4879698;29;20032;-90
2023/10/21 13:36:29;;;;;;;0.98;0.50;;;;;;;13.18;100.00;93268.66;4860587;29;20032;-89
2023/10/21 13:38:55;;;;;;;5.55;0.80;;;;;;;13.29;100.00;93269.91;4888828;29;20347;-89
2023/10/21 13:41:20;;;;;;;2.17;0.60;;;;;;;13.30;100.00;93265.41;4856014;29;20020;-89
2023/10/21 13:43:46;;;;;;;2.90;0.85;;;;;;;13.68;100.00;93256.06;4857145;29;20028;-88
2023/10/21 13:46:11;;;;;;;0.85;0.40;;;;;;;13.95;100.00;93268.09;4899849;29;20025;-89
2023/10/21 13:48:38;;;;;;;2.08;0.45;;;;;;;13.42;100.00;93255.00;4885433;29;20033;-89
2023/10/21 13:51:07;;;;;;;1.58;0.68;;;;;;;13.63;100.00;93243.09;4869149;29;20131;-89
2023/10/21 13:53:53;;;;;;;1.88;0.30;;;;;;;13.64;100.00;93234.88;4854617;29;20029;-89
2023/10/21 13:56:19;;;;;;;1.48;0.40;;;;;;;14.31;100.00;93236.31;4869513;29;20457;-89
2023/10/21 13:58:46;;;;;;;8.98;0.57;;;;;;;14.86;100.00;93244.38;4868997;29;20043;-89
2023/10/21 14:01:13;;;;;;;3.20;0.38;;;;;;;15.16;100.00;93255.66;4869148;29;20025;-89